Time;durP1;ratioP1;P1;durP2;ratioP2;P2;SDS_P1;SDS_P2;PMS_P1;PMS_P2;Temp;Humidity;BMP_temperature;BMP_pressure;BME280_temperature;BME280_humidity;BME280_pressure;Samples;Min_cycle;Max_cycle;Signal;HPM_P1;HPM_P2
2021/07/02 00:01:25;;;;;;;2.92;1.50;;;;;;;15.17;79.11;95266.42;1786613;80;21027;-59
2021/07/02 00:03:51;;;;;;;3.37;1.55;;;;;;;15.18;79.15;95262.86;1787213;80;21038;-58
2021/07/02 00:06:18;;;;;;;2.25;1.42;;;;;;;15.10;78.50;95262.70;1786925;80;20967;-59
2021/07/02 00:08:44;;;;;;;8.33;1.92;;;;;;;14.96;78.25;95266.39;1786877;80;21087;-58
2021/07/02 00:11:11;;;;;;;5.12;1.80;;;;;;;14.77;79.62;95267.61;1787127;80;21564;-58
2021/07/02 00:13:38;;;;;;;4.92;1.75;;;;;;;14.79;80.01;95263.11;1787182;80;20991;-59
2021/07/02 00:16:05;;;;;;;3.67;1.98;;;;;;;14.84;79.92;95252.27;1793668;80;21011;-58
2021/07/02 00:18:32;;;;;;;5.20;1.22;;;;;;;14.81;79.89;95253.27;1795508;80;21508;-59
2021/07/02 00:20:59;;;;;;;2.30;1.20;;;;;;;14.83;79.40;95255.87;1794983;80;21082;-59
2021/07/02 00:23:26;;;;;;;4.50;1.40;;;;;;;14.74;79.34;95257.56;1795355;80;21079;-58
2021/07/02 00:25:52;;;;;;;3.58;1.77;;;;;;;14.73;79.12;95258.03;1795454;80;21050;-59
2021/07/02 00:28:19;;;;;;;5.80;1.50;;;;;;;14.72;79.71;95256.31;1795504;80;21002;-58
2021/07/02 00:30:46;;;;;;;2.30;1.50;;;;;;;14.77;79.46;95253.47;1795218;80;20975;-59
2021/07/02 00:33:12;;;;;;;5.58;1.60;;;;;;;14.75;78.72;95252.67;1795508;80;21054;-59
2021/07/02 00:35:41;;;;;;;3.85;1.47;;;;;;;14.70;80.17;95254.17;1795233;80;21015;-58
2021/07/02 00:38:07;;;;;;;2.33;1.70;;;;;;;14.67;79.65;95255.16;1795677;80;20959;-59
2021/07/02 00:40:34;;;;;;;2.33;1.70;;;;;;;14.65;79.38;95259.66;1795437;80;20986;-59
2021/07/02 00:43:00;;;;;;;6.17;1.80;;;;;;;14.71;79.36;95259.41;1795431;80;21054;-59
2021/07/02 00:45:27;;;;;;;2.20;1.67;;;;;;;14.79;79.21;95257.80;1795781;80;21039;-58
2021/07/02 00:47:54;;;;;;;3.25;1.55;;;;;;;14.82;79.05;95260.80;1795185;80;21029;-58
2021/07/02 00:50:21;;;;;;;4.28;1.57;;;;;;;14.80;79.01;95255.53;1795280;80;21011;-58
2021/07/02 00:52:47;;;;;;;4.72;2.65;;;;;;;14.83;78.96;95256.73;1795584;80;21543;-59
2021/07/02 00:55:15;;;;;;;3.00;2.17;;;;;;;14.78;79.89;95253.39;1795576;80;21033;-58
2021/07/02 00:57:45;;;;;;;2.90;2.17;;;;;;;14.69;80.28;95256.41;1795215;80;21030;-58
2021/07/02 01:00:13;;;;;;;3.65;1.90;;;;;;;14.71;80.09;95250.11;1764530;80;20999;-59
2021/07/02 01:02:42;;;;;;;4.47;1.62;;;;;;;14.73;80.34;95250.53;1795428;80;21138;-58
2021/07/02 01:05:10;;;;;;;3.52;1.50;;;;;;;14.69;81.14;95245.35;1764365;80;20995;-59
2021/07/02 01:07:41;;;;;;;4.03;1.82;;;;;;;14.68;80.34;95245.40;1795459;80;21007;-59
2021/07/02 01:10:11;;;;;;;4.08;1.85;;;;;;;14.67;80.79;95244.54;1795505;80;21074;-59
2021/07/02 01:12:40;;;;;;;3.20;1.50;;;;;;;14.70;80.80;95247.06;1795682;80;21045;-58
2021/07/02 01:15:18;;;;;;;3.85;1.47;;;;;;;14.70;81.79;95239.09;1795480;80;21477;-59
2021/07/02 01:17:45;;;;;;;4.05;1.52;;;;;;;14.70;80.80;95240.42;1790709;80;21050;-59
2021/07/02 01:20:13;;;;;;;2.10;1.42;;;;;;;14.70;80.53;95240.42;1795456;80;21516;-59
2021/07/02 01:22:40;;;;;;;1.77;1.20;;;;;;;14.82;80.48;95247.05;1795407;80;21484;-59
2021/07/02 01:25:08;;;;;;;5.40;1.70;;;;;;;14.87;79.73;95247.72;1795352;80;20998;-59
2021/07/02 01:27:35;;;;;;;4.03;1.60;;;;;;;14.84;79.85;95240.32;1795641;80;21492;-59
2021/07/02 01:30:06;;;;;;;3.27;1.47;;;;;;;14.77;80.13;95238.87;1795456;80;21019;-58
2021/07/02 01:32:33;;;;;;;4.95;1.50;;;;;;;14.71;79.42;95239.48;1795443;80;20974;-59
2021/07/02 01:35:00;;;;;;;2.50;1.55;;;;;;;14.67;79.75;95245.02;1795416;80;21046;-59
2021/07/02 01:37:27;;;;;;;3.80;1.30;;;;;;;14.73;79.62;95245.22;1795342;80;21518;-59
2021/07/02 01:39:55;;;;;;;1.70;1.25;;;;;;;14.73;79.46;95241.23;1795415;80;21047;-59
2021/07/02 01:42:23;;;;;;;1.60;1.15;;;;;;;14.73;79.18;95239.44;1795228;80;21581;-58
2021/07/02 01:44:50;;;;;;;3.85;1.40;;;;;;;14.73;79.17;95246.08;1795354;80;21006;-59
2021/07/02 01:47:17;;;;;;;2.45;1.12;;;;;;;14.80;79.16;95247.56;1795627;80;21002;-58
2021/07/02 01:49:43;;;;;;;3.65;1.27;;;;;;;14.79;79.16;95240.53;1795546;80;20981;-59
2021/07/02 01:52:10;;;;;;;2.85;2.05;;;;;;;14.76;80.20;95249.93;1795176;80;20990;-59
2021/07/02 01:54:37;;;;;;;4.75;1.80;;;;;;;14.84;79.63;95253.59;1795510;80;20955;-59
2021/07/02 01:57:09;;;;;;;1.98;1.50;;;;;;;14.78;79.12;95245.89;1795653;80;21006;-59
2021/07/02 01:59:38;;;;;;;5.55;1.62;;;;;;;14.67;79.48;95246.34;1795417;80;21023;-59
2021/07/02 02:02:06;;;;;;;1.40;1.30;;;;;;;14.63;79.73;95243.39;1794750;80;21022;-59
2021/07/02 02:04:33;;;;;;;4.37;1.50;;;;;;;14.60;79.42;95243.05;1795595;80;21501;-58
2021/07/02 02:07:00;;;;;;;1.60;1.10;;;;;;;14.52;79.91;95238.48;1795214;80;20995;-58
2021/07/02 02:09:27;;;;;;;4.22;1.35;;;;;;;14.48;79.36;95237.72;1795749;80;20974;-59
2021/07/02 02:11:54;;;;;;;2.55;1.75;;;;;;;14.41;79.56;95240.24;1795494;80;20967;-59
2021/07/02 02:14:23;;;;;;;3.45;1.50;;;;;;;14.39;80.55;95241.20;1795047;80;20976;-58
2021/07/02 02:16:51;;;;;;;2.87;1.32;;;;;;;14.35;80.66;95238.28;1795358;80;21102;-58
2021/07/02 02:19:19;;;;;;;2.33;1.37;;;;;;;14.41;80.43;95244.66;1795534;80;20971;-58
2021/07/02 02:21:46;;;;;;;3.75;1.90;;;;;;;14.45;80.89;95244.95;1795399;80;21022;-58
2021/07/02 02:24:13;;;;;;;5.30;2.35;;;;;;;14.44;80.83;95251.20;1795638;80;21063;-59
2021/07/02 02:26:40;;;;;;;1.95;1.62;;;;;;;14.40;80.70;95251.77;1795545;80;21006;-59
2021/07/02 02:29:07;;;;;;;1.98;1.87;;;;;;;14.34;81.42;95252.45;1795550;80;21038;-59
2021/07/02 02:31:34;;;;;;;3.10;1.27;;;;;;;14.35;81.50;95265.68;1795065;80;21536;-58
2021/07/02 02:34:03;;;;;;;1.85;1.12;;;;;;;14.36;81.75;95268.72;1794920;80;21650;-59
2021/07/02 02:36:30;;;;;;;1.12;1.02;;;;;;;14.33;81.79;95266.66;1795364;80;21042;-59
2021/07/02 02:38:57;;;;;;;5.05;1.32;;;;;;;14.37;80.87;95279.77;1795463;80;21006;-59
2021/07/02 02:41:24;;;;;;;3.42;1.65;;;;;;;14.39;80.67;95281.91;1795275;80;21018;-58
2021/07/02 02:43:51;;;;;;;4.30;1.67;;;;;;;14.34;81.30;95284.30;1795696;80;21010;-58
2021/07/02 02:46:18;;;;;;;6.50;1.90;;;;;;;14.38;82.04;95282.80;1795438;80;20959;-59
2021/07/02 02:48:45;;;;;;;5.58;2.42;;;;;;;14.49;81.96;95274.45;1795445;80;21019;-59
2021/07/02 02:51:11;;;;;;;5.45;1.40;;;;;;;14.57;81.77;95279.49;1794984;80;21042;-59
2021/07/02 02:53:38;;;;;;;3.47;1.05;;;;;;;14.66;81.51;95277.78;1795360;80;21476;-59
2021/07/02 02:56:05;;;;;;;2.60;1.20;;;;;;;14.68;81.16;95279.45;1795335;80;21026;-59
2021/07/02 02:58:34;;;;;;;3.83;1.87;;;;;;;14.60;81.05;95284.67;1795098;80;21090;-59
2021/07/02 03:01:00;;;;;;;6.80;1.98;;;;;;;14.60;81.10;95280.22;1795670;80;20951;-58
2021/07/02 03:03:27;;;;;;;4.53;2.20;;;;;;;14.63;81.42;95277.44;1795394;80;21002;-59
2021/07/02 03:05:55;;;;;;;4.42;2.77;;;;;;;14.75;81.61;95278.75;1794975;80;21046;-59
2021/07/02 03:08:22;;;;;;;9.55;2.35;;;;;;;14.93;81.08;95285.97;1795382;80;21449;-59
2021/07/02 03:10:50;;;;;;;3.52;2.55;;;;;;;14.99;80.34;95282.66;1794759;80;21127;-58
2021/07/02 03:13:17;;;;;;;4.17;1.65;;;;;;;15.09;80.20;95283.58;1795130;80;21020;-59
2021/07/02 03:15:44;;;;;;;2.58;1.57;;;;;;;15.16;79.85;95282.84;1792900;80;21010;-59
2021/07/02 03:18:11;;;;;;;2.15;1.07;;;;;;;15.17;79.41;95274.39;1786696;80;21082;-59
2021/07/02 03:20:38;;;;;;;2.92;1.77;;;;;;;15.13;79.45;95275.86;1786718;80;21022;-58
2021/07/02 03:23:05;;;;;;;5.25;1.75;;;;;;;15.11;80.65;95280.84;1786810;80;21082;-59
2021/07/02 03:25:33;;;;;;;6.50;1.80;;;;;;;15.15;80.66;95281.13;1786880;80;21094;-58
2021/07/02 03:28:00;;;;;;;3.85;1.77;;;;;;;15.26;80.43;95289.97;1787027;80;21018;-58
2021/07/02 03:30:28;;;;;;;1.60;1.50;;;;;;;15.34;79.98;95289.17;1786977;80;21011;-58
2021/07/02 03:32:54;;;;;;;5.83;1.65;;;;;;;15.39;79.73;95294.30;1787124;80;20979;-59
2021/07/02 03:35:21;;;;;;;5.45;1.90;;;;;;;15.33;79.78;95285.66;1754053;80;21113;-59
2021/07/02 03:37:48;;;;;;;5.20;2.12;;;;;;;15.39;80.35;95289.84;1786970;80;20967;-59
2021/07/02 03:40:16;;;;;;;5.37;1.82;;;;;;;15.46;79.86;95282.48;1786965;80;20998;-58
2021/07/02 03:42:44;;;;;;;4.10;1.90;;;;;;;15.48;79.76;95282.81;1786263;80;21011;-58
2021/07/02 03:45:12;;;;;;;5.62;2.10;;;;;;;15.41;79.05;95285.33;1787219;80;21023;-59
2021/07/02 03:47:38;;;;;;;4.50;2.20;;;;;;;15.38;79.67;95287.27;1787285;80;20959;-59
2021/07/02 03:50:08;;;;;;;6.85;2.10;;;;;;;15.42;80.10;95285.75;1787428;80;21489;-59
2021/07/02 03:52:34;;;;;;;2.87;2.42;;;;;;;15.45;80.21;95291.41;1787234;80;21476;-59
2021/07/02 03:55:01;;;;;;;3.62;2.08;;;;;;;15.48;80.39;95296.11;1787343;80;20991;-59
2021/07/02 03:57:28;;;;;;;4.92;2.27;;;;;;;15.42;80.09;95294.16;1787301;80;20995;-59
2021/07/02 03:59:54;;;;;;;3.72;1.80;;;;;;;15.46;79.89;95288.66;1787382;80;21015;-59
2021/07/02 04:02:21;;;;;;;4.65;2.10;;;;;;;15.52;79.55;95281.77;1787404;80;21484;-59
2021/07/02 04:04:48;;;;;;;4.20;2.37;;;;;;;15.56;79.50;95271.85;1787038;80;21011;-59
2021/07/02 04:07:15;;;;;;;12.78;3.10;;;;;;;15.62;79.71;95270.72;1787121;80;21496;-59
2021/07/02 04:09:42;;;;;;;4.92;2.98;;;;;;;15.73;80.15;95267.17;1787076;80;21063;-59
2021/07/02 04:12:10;;;;;;;4.25;2.37;;;;;;;15.83;79.97;95264.50;1787027;80;21051;-59
2021/07/02 04:14:37;;;;;;;10.25;2.47;;;;;;;15.86;78.34;95261.70;1787263;80;21054;-58
2021/07/02 04:17:04;;;;;;;3.05;2.30;;;;;;;16.00;78.49;95269.05;1793073;80;21050;-59
2021/07/02 04:19:31;;;;;;;7.70;2.42;;;;;;;16.12;78.75;95264.50;1795450;80;21461;-58
2021/07/02 04:21:58;;;;;;;4.30;2.27;;;;;;;16.23;78.97;95270.22;1795395;80;21007;-59
2021/07/02 04:24:27;;;;;;;5.58;2.10;;;;;;;16.36;78.86;95269.17;1795592;80;21014;-58
2021/07/02 04:26:54;;;;;;;2.83;1.60;;;;;;;16.45;78.65;95265.20;1795789;80;21002;-59
2021/07/02 04:29:20;;;;;;;4.20;1.80;;;;;;;16.52;78.22;95268.45;1795443;80;21045;-59
2021/07/02 04:31:47;;;;;;;3.37;1.57;;;;;;;16.57;78.85;95264.63;1795631;80;20979;-58
2021/07/02 04:34:13;;;;;;;2.33;1.45;;;;;;;16.68;78.11;95276.10;1795450;80;21003;-59
2021/07/02 04:36:40;;;;;;;7.42;2.12;;;;;;;16.65;76.64;95273.59;1795427;80;21480;-59
2021/07/02 04:39:07;;;;;;;15.00;2.25;;;;;;;16.68;76.88;95273.91;1795677;80;20960;-59
2021/07/02 04:41:34;;;;;;;10.68;2.12;;;;;;;16.75;76.90;95281.54;1795530;80;21022;-59
2021/07/02 04:44:00;;;;;;;8.43;2.00;;;;;;;16.79;77.23;95283.64;1795376;80;21066;-59
2021/07/02 04:46:27;;;;;;;1.50;1.40;;;;;;;16.86;77.33;95299.26;1795741;80;21014;-59
2021/07/02 04:48:53;;;;;;;3.05;1.00;;;;;;;16.63;72.91;95318.08;1795152;80;21074;-59
2021/07/02 04:51:20;;;;;;;2.67;1.47;;;;;;;16.42;75.35;95325.27;1795787;80;21010;-59
2021/07/02 04:53:47;;;;;;;3.37;1.35;;;;;;;16.01;76.70;95320.87;1795195;80;21008;-59
2021/07/02 04:56:14;;;;;;;1.75;1.40;;;;;;;15.76;77.98;95314.91;1795512;80;21468;-59
2021/07/02 04:58:43;;;;;;;2.85;1.10;;;;;;;15.63;78.43;95309.22;1795430;80;21042;-58
2021/07/02 05:01:17;;;;;;;2.92;1.07;;;;;;;15.58;78.51;95300.11;1795365;80;20987;-59
2021/07/02 05:03:39;;;;;;;3.00;0.95;;;;;;;15.39;78.80;95300.95;1793901;80;21011;-59
2021/07/02 05:06:07;;;;;;;3.72;1.30;;;;;;;15.43;79.57;95302.56;1795590;80;21488;-59
2021/07/02 05:08:34;;;;;;;2.02;1.17;;;;;;;15.49;80.52;95304.48;1795544;80;20986;-59
2021/07/02 05:11:02;;;;;;;3.83;1.10;;;;;;;15.58;80.91;95307.22;1795321;80;21102;-59
2021/07/02 05:13:31;;;;;;;1.65;1.20;;;;;;;15.59;80.20;95303.63;1795155;80;21007;-58
2021/07/02 05:15:58;;;;;;;2.87;1.50;;;;;;;15.63;80.76;95297.73;1793747;80;21010;-59
2021/07/02 05:18:24;;;;;;;3.12;1.20;;;;;;;15.67;80.93;95303.30;1787087;80;21473;-59
2021/07/02 05:20:51;;;;;;;3.67;1.50;;;;;;;15.67;81.50;95311.27;1787276;80;21002;-58
2021/07/02 05:23:17;;;;;;;4.45;1.52;;;;;;;15.60;83.33;95305.37;1786714;80;21520;-58
2021/07/02 05:25:43;;;;;;;9.03;4.10;;;;;;;15.67;84.91;95310.80;1787482;80;21007;-59
2021/07/02 05:28:10;;;;;;;8.08;3.90;;;;;;;15.77;83.75;95307.31;1787311;80;20999;-59
2021/07/02 05:30:36;;;;;;;4.15;2.60;;;;;;;15.91;82.74;95308.91;1787297;80;20983;-59
2021/07/02 05:33:04;;;;;;;6.67;3.12;;;;;;;16.01;82.42;95312.89;1786934;80;21026;-59
2021/07/02 05:35:30;;;;;;;3.77;2.55;;;;;;;16.04;82.62;95316.36;1787244;80;20967;-59
2021/07/02 05:37:57;;;;;;;6.28;2.40;;;;;;;16.17;82.65;95313.54;1786956;80;21000;-59
2021/07/02 05:40:24;;;;;;;5.17;1.90;;;;;;;16.32;82.71;95309.32;1787171;80;20995;-59
2021/07/02 05:42:50;;;;;;;5.95;2.00;;;;;;;16.39;81.90;95314.77;1787051;80;21018;-59
2021/07/02 05:45:17;;;;;;;3.20;1.57;;;;;;;16.49;82.52;95321.87;1787106;80;20983;-59
2021/07/02 05:47:52;;;;;;;3.30;1.57;;;;;;;16.49;81.91;95320.06;1786843;80;21019;-59
2021/07/02 05:50:19;;;;;;;9.23;4.65;;;;;;;16.56;82.27;95317.52;1786730;80;20991;-58
2021/07/02 05:52:51;;;;;;;3.47;1.98;;;;;;;16.62;81.59;95323.88;1786824;80;21018;-59
2021/07/02 05:55:17;;;;;;;4.47;2.10;;;;;;;16.71;81.15;95329.73;1787347;80;20995;-59
2021/07/02 05:57:44;;;;;;;4.10;2.50;;;;;;;16.74;81.34;95330.44;1786757;80;21026;-59
2021/07/02 06:00:12;;;;;;;4.92;2.40;;;;;;;16.77;81.50;95323.63;1787203;80;21409;-59
2021/07/02 06:02:38;;;;;;;4.35;2.15;;;;;;;16.78;81.02;95336.52;1787061;80;21026;-59
2021/07/02 06:05:07;;;;;;;4.25;1.75;;;;;;;16.88;81.37;95336.47;1787229;80;21049;-58
2021/07/02 06:07:49;;;;;;;2.85;1.87;;;;;;;16.89;80.57;95333.37;1786993;80;20979;-59
2021/07/02 06:10:19;;;;;;;3.47;1.77;;;;;;;16.80;80.14;95334.17;1787051;80;21038;-59
2021/07/02 06:12:47;;;;;;;7.72;4.97;;;;;;;16.78;80.82;95334.73;1787005;80;21003;-59
2021/07/02 06:15:17;;;;;;;4.35;2.50;;;;;;;16.84;81.26;95326.91;1787072;80;21014;-59
2021/07/02 06:17:46;;;;;;;6.28;2.02;;;;;;;16.91;80.71;95331.02;1787027;80;21022;-59
2021/07/02 06:20:15;;;;;;;2.62;2.22;;;;;;;16.94;80.15;95323.34;1787105;80;21488;-59
2021/07/02 06:22:42;;;;;;;3.40;1.87;;;;;;;16.89;80.48;95321.37;1786953;80;21046;-59
2021/07/02 06:25:11;;;;;;;1.70;1.60;;;;;;;16.85;81.20;95321.49;1787263;80;21058;-59
2021/07/02 06:27:39;;;;;;;2.25;1.80;;;;;;;16.84;80.27;95321.11;1787065;80;21014;-59
2021/07/02 06:30:08;;;;;;;1.75;1.60;;;;;;;16.82;80.22;95324.31;1786991;80;21015;-59
2021/07/02 06:32:34;;;;;;;4.33;1.60;;;;;;;16.94;80.79;95320.69;1787072;80;21011;-59
2021/07/02 06:35:01;;;;;;;1.80;1.50;;;;;;;17.09;80.71;95323.94;1787047;80;21492;-59
2021/07/02 06:37:28;;;;;;;1.42;1.02;;;;;;;17.27;80.08;95323.51;1786635;80;21415;-58
2021/07/02 06:39:54;;;;;;;1.35;1.22;;;;;;;17.38;80.44;95320.30;1787155;80;21026;-59
2021/07/02 06:42:21;;;;;;;2.70;1.40;;;;;;;17.47;80.02;95315.85;1787233;80;21050;-59
2021/07/02 06:44:47;;;;;;;2.72;1.42;;;;;;;17.61;79.75;95315.14;1787004;80;21007;-59
2021/07/02 06:47:14;;;;;;;3.85;1.62;;;;;;;17.88;79.06;95311.58;1787212;80;21007;-59
2021/07/02 06:49:40;;;;;;;3.80;1.50;;;;;;;17.88;79.06;95311.58;1787096;80;21497;-59
2021/07/02 06:52:08;;;;;;;2.45;1.45;;;;;;;17.95;78.09;95313.84;1786816;80;21018;-59
2021/07/02 06:54:35;;;;;;;4.50;1.40;;;;;;;18.04;77.52;95311.19;1786830;80;21011;-59
2021/07/02 06:57:03;;;;;;;3.45;1.30;;;;;;;18.23;77.74;95310.20;1786759;80;21030;-59
2021/07/02 06:59:33;;;;;;;2.27;1.85;;;;;;;18.35;76.78;95302.39;1787103;80;21078;-59
2021/07/02 07:02:01;;;;;;;3.60;1.42;;;;;;;18.42;76.19;95307.39;1786942;80;20995;-59
2021/07/02 07:04:34;;;;;;;7.30;3.60;;;;;;;18.48;76.25;95295.91;1787052;80;21484;-59
2021/07/02 07:06:57;;;;;;;10.48;4.53;;;;;;;18.48;76.25;95295.91;1786333;80;21019;-59
2021/07/02 07:09:24;;;;;;;8.95;3.35;;;;;;;18.53;76.53;95307.20;1786927;80;21010;-59
2021/07/02 07:11:51;;;;;;;7.75;2.95;;;;;;;18.57;76.11;95300.77;1787204;80;20999;-59
2021/07/02 07:14:17;;;;;;;8.83;3.40;;;;;;;18.59;75.92;95298.84;1786979;80;21046;-59
2021/07/02 07:16:44;;;;;;;13.78;3.47;;;;;;;18.68;76.54;95297.97;1788573;80;20979;-59
2021/07/02 07:19:11;;;;;;;14.98;3.47;;;;;;;18.71;76.71;95296.46;1795611;80;20963;-59
2021/07/02 07:21:37;;;;;;;22.37;3.40;;;;;;;18.73;76.01;95292.75;1795138;80;21016;-59
2021/07/02 07:24:05;;;;;;;15.15;3.22;;;;;;;18.79;76.36;95291.58;1795531;80;21038;-59
2021/07/02 07:26:33;;;;;;;9.53;2.80;;;;;;;18.87;77.04;95287.14;1795687;80;21026;-59
2021/07/02 07:29:00;;;;;;;11.10;3.17;;;;;;;18.98;76.78;95290.09;1795747;80;20998;-59
2021/07/02 07:31:27;;;;;;;9.18;3.12;;;;;;;19.10;76.98;95284.05;1795363;80;21019;-59
2021/07/02 07:33:56;;;;;;;10.50;3.00;;;;;;;19.23;77.82;95290.41;1795524;80;21480;-59
2021/07/02 07:36:23;;;;;;;14.10;2.90;;;;;;;19.29;75.89;95282.50;1795187;80;21069;-59
2021/07/02 07:38:50;;;;;;;4.72;2.55;;;;;;;19.31;75.10;95281.94;1795498;80;21025;-59
2021/07/02 07:41:19;;;;;;;6.55;2.67;;;;;;;19.25;74.24;95276.92;1795355;80;21540;-59
2021/07/02 07:43:45;;;;;;;5.53;2.22;;;;;;;19.25;74.01;95279.59;1795676;80;21428;-59
2021/07/02 07:46:12;;;;;;;11.57;2.83;;;;;;;19.28;74.16;95283.46;1795656;80;21009;-59
2021/07/02 07:48:38;;;;;;;8.23;2.60;;;;;;;19.27;73.51;95281.72;1795510;80;21105;-59
2021/07/02 07:53:50;;;;;;;5.30;2.90;;;;;;;19.20;73.59;95284.35;1795451;80;20994;-59
2021/07/02 07:56:17;;;;;;;10.60;3.72;;;;;;;19.30;74.28;95291.37;1795528;80;21007;-59
2021/07/02 07:58:43;;;;;;;7.40;2.98;;;;;;;19.37;74.50;95285.58;1795159;80;21063;-59
2021/07/02 08:01:10;;;;;;;6.00;3.27;;;;;;;19.39;73.96;95285.50;1795247;80;21023;-59
2021/07/02 08:03:37;;;;;;;4.20;3.15;;;;;;;19.44;74.43;95282.94;1795658;80;21014;-59
2021/07/02 08:06:04;;;;;;;4.40;2.80;;;;;;;19.50;75.19;95279.52;1795564;80;21492;-59
2021/07/02 08:08:30;;;;;;;5.15;2.65;;;;;;;19.57;75.08;95283.56;1795660;80;20978;-59
2021/07/02 08:10:57;;;;;;;9.00;2.87;;;;;;;19.57;75.31;95279.55;1795109;80;21053;-59
2021/07/02 08:13:28;;;;;;;4.53;3.25;;;;;;;19.54;74.55;95281.93;1795609;80;20975;-59
2021/07/02 08:15:51;;;;;;;6.33;2.92;;;;;;;19.56;74.06;95281.38;1795149;80;20979;-59
2021/07/02 08:18:18;;;;;;;5.05;2.90;;;;;;;19.60;73.99;95278.02;1795045;80;21019;-59
2021/07/02 08:20:45;;;;;;;2.75;2.55;;;;;;;19.64;73.63;95287.12;1795219;80;21474;-59
2021/07/02 08:23:12;;;;;;;4.22;2.42;;;;;;;19.64;73.15;95289.80;1795427;80;21017;-59
2021/07/02 08:25:39;;;;;;;4.83;2.52;;;;;;;19.61;72.90;95283.78;1795394;80;21519;-59
2021/07/02 08:30:52;;;;;;;2.70;2.50;;;;;;;19.56;73.04;95277.36;1795366;80;21051;-59
2021/07/02 08:33:19;;;;;;;5.40;2.92;;;;;;;19.55;73.44;95288.14;1795482;80;21464;-59
2021/07/02 08:35:47;;;;;;;8.08;3.40;;;;;;;19.63;72.89;95288.09;1795666;80;21035;-59
2021/07/02 08:38:15;;;;;;;6.12;3.17;;;;;;;19.73;72.64;95288.44;1795543;80;21011;-59
2021/07/02 08:40:44;;;;;;;5.12;3.35;;;;;;;19.77;72.18;95281.94;1795517;80;21338;-59
2021/07/02 08:43:11;;;;;;;6.10;4.22;;;;;;;19.83;71.40;95282.92;1795542;80;21101;-59
2021/07/02 08:45:38;;;;;;;7.78;3.65;;;;;;;19.94;70.67;95284.09;1795626;80;20970;-59
2021/07/02 08:48:07;;;;;;;5.40;3.17;;;;;;;20.00;71.15;95275.19;1795327;80;20999;-59
2021/07/02 08:50:37;;;;;;;4.60;2.80;;;;;;;20.09;71.21;95277.31;1795590;80;20995;-59
2021/07/02 08:53:05;;;;;;;2.87;2.20;;;;;;;20.17;70.68;95275.98;1795327;80;20979;-62
2021/07/02 08:55:33;;;;;;;3.02;2.20;;;;;;;20.20;69.80;95273.11;1795506;80;20999;-59
2021/07/02 08:58:00;;;;;;;5.47;2.00;;;;;;;20.29;68.75;95271.22;1795570;80;20990;-59
2021/07/02 09:00:28;;;;;;;3.02;1.60;;;;;;;20.44;67.34;95268.06;1795402;80;21038;-59
2021/07/02 09:02:55;;;;;;;6.58;2.22;;;;;;;20.65;66.55;95265.87;1795373;80;21014;-59
2021/07/02 09:05:35;;;;;;;2.17;1.98;;;;;;;20.90;68.27;95270.03;1795600;80;21468;-59
2021/07/02 09:08:14;;;;;;;6.45;2.00;;;;;;;21.25;65.50;95266.03;1795498;80;21523;-59
2021/07/02 09:10:42;;;;;;;5.60;2.10;;;;;;;21.51;64.67;95271.03;1795670;80;20979;-59
2021/07/02 09:13:08;;;;;;;3.87;1.70;;;;;;;21.75;65.12;95272.06;1795177;80;21013;-59
2021/07/02 09:15:46;;;;;;;2.80;1.35;;;;;;;22.18;64.60;95262.39;1795346;80;21543;-59
2021/07/02 09:18:16;;;;;;;2.02;1.15;;;;;;;22.56;62.82;95256.67;1794711;80;21050;-59
2021/07/02 09:20:45;;;;;;;2.17;1.00;;;;;;;22.67;57.34;95256.74;1795410;80;21011;-60
2021/07/02 09:23:16;;;;;;;2.22;1.00;;;;;;;22.66;56.50;95260.42;1795923;80;21526;-59
2021/07/02 09:25:52;;;;;;;1.12;1.00;;;;;;;22.80;55.94;95265.64;1795607;80;21038;-59
2021/07/02 09:28:24;;;;;;;2.47;1.25;;;;;;;23.03;59.28;95262.69;1795480;80;21382;-59
2021/07/02 09:30:52;;;;;;;1.27;1.00;;;;;;;22.88;52.02;95265.08;1795722;80;20998;-59
2021/07/02 09:33:25;;;;;;;1.95;1.07;;;;;;;22.87;55.22;95272.30;1795415;80;21018;-59
2021/07/02 09:35:59;;;;;;;1.95;0.90;;;;;;;22.96;55.58;95255.99;1795538;80;21022;-59
2021/07/02 09:38:38;;;;;;;1.00;0.90;;;;;;;23.19;54.47;95257.52;1795350;80;20999;-59
2021/07/02 09:41:08;;;;;;;0.95;0.90;;;;;;;23.36;54.87;95262.51;1795485;80;20959;-59
2021/07/02 09:43:38;;;;;;;1.25;1.12;;;;;;;23.47;54.39;95265.25;1795364;80;21057;-59
2021/07/02 09:46:07;;;;;;;1.10;0.98;;;;;;;23.53;53.41;95263.42;1795586;80;20995;-59
2021/07/02 09:48:44;;;;;;;0.60;0.60;;;;;;;23.73;52.53;95261.09;1764187;80;21468;-59
2021/07/02 09:51:13;;;;;;;0.70;0.70;;;;;;;23.72;50.02;95266.09;1795493;80;20998;-59
2021/07/02 09:53:40;;;;;;;1.42;0.80;;;;;;;23.64;49.38;95265.33;1795428;80;21007;-59
2021/07/02 09:56:20;;;;;;;0.90;0.82;;;;;;;23.79;51.16;95262.46;1795291;80;21121;-59
2021/07/02 09:58:47;;;;;;;1.72;0.88;;;;;;;23.87;50.60;95261.41;1795220;80;21062;-59
2021/07/02 10:01:26;;;;;;;3.27;0.90;;;;;;;24.06;51.02;95256.30;1795607;80;21011;-59
2021/07/02 10:03:53;;;;;;;2.05;0.80;;;;;;;24.21;49.94;95264.19;1795493;80;21026;-59
2021/07/02 10:06:25;;;;;;;1.02;0.80;;;;;;;24.37;48.03;95260.67;1795194;80;21034;-59
2021/07/02 10:08:52;;;;;;;1.07;1.00;;;;;;;24.32;48.90;95254.29;1795359;80;20986;-59
2021/07/02 10:11:19;;;;;;;1.82;0.78;;;;;;;24.40;46.61;95252.33;1795458;80;21038;-59
2021/07/02 10:13:49;;;;;;;1.32;1.17;;;;;;;24.40;47.23;95251.84;1795356;80;21006;-59
2021/07/02 10:16:16;;;;;;;1.20;0.80;;;;;;;24.50;45.85;95252.01;1795435;80;21010;-59
2021/07/02 10:18:51;;;;;;;3.80;0.80;;;;;;;24.56;51.91;95249.30;1795318;80;21488;-59
2021/07/02 10:21:21;;;;;;;2.50;0.90;;;;;;;24.53;45.70;95249.06;1795444;80;21006;-59
2021/07/02 10:23:50;;;;;;;1.35;0.75;;;;;;;24.61;47.33;95244.40;1795409;80;21053;-59
2021/07/02 10:26:21;;;;;;;2.67;0.90;;;;;;;24.66;45.72;95242.19;1795553;80;21524;-59
2021/07/02 10:28:48;;;;;;;1.37;0.90;;;;;;;24.60;44.43;95247.59;1795509;80;20974;-59
2021/07/02 10:31:18;;;;;;;2.35;0.98;;;;;;;24.31;43.99;95254.39;1795357;80;21456;-59
2021/07/02 10:33:49;;;;;;;1.30;1.15;;;;;;;24.28;45.33;95247.41;1795524;80;20982;-59
2021/07/02 10:36:18;;;;;;;1.17;1.07;;;;;;;24.53;46.64;95246.86;1795407;80;20998;-59
2021/07/02 10:38:50;;;;;;;2.52;2.33;;;;;;;24.89;46.91;95254.33;1795233;80;21026;-60
2021/07/02 10:41:24;;;;;;;2.60;1.00;;;;;;;24.88;46.46;95256.17;1795543;80;21523;-59
2021/07/02 10:44:13;;;;;;;1.60;1.50;;;;;;;24.99;43.32;95255.30;1795359;80;20991;-59
2021/07/02 10:47:02;;;;;;;0.90;0.90;;;;;;;24.97;43.41;95262.66;1794805;80;20975;-59
2021/07/02 10:49:40;;;;;;;2.52;1.07;;;;;;;24.55;44.47;95254.34;1795658;80;20973;-59
2021/07/02 10:52:28;;;;;;;1.00;1.00;;;;;;;23.98;47.11;95258.23;1795305;80;20998;-60
2021/07/02 10:54:57;;;;;;;1.65;0.98;;;;;;;24.38;46.18;95255.64;1795353;80;20987;-59
2021/07/02 10:57:26;;;;;;;2.87;0.70;;;;;;;24.40;45.34;95263.13;1795237;80;21010;-59
2021/07/02 10:59:59;;;;;;;1.42;0.70;;;;;;;24.54;45.18;95258.85;1795246;80;21030;-59
2021/07/02 11:15:03;;;;;;;1.92;0.60;;;;;;;25.51;41.61;95233.48;1860243;77;22421;-59
2021/07/02 11:17:38;;;;;;;0.82;0.75;;;;;;;25.84;45.24;95249.20;1831734;78;20988;-59
2021/07/02 11:20:12;;;;;;;4.20;0.80;;;;;;;25.65;44.44;95249.88;1832499;78;21003;-59
2021/07/02 11:23:00;;;;;;;0.70;0.70;;;;;;;25.34;43.53;95244.34;1832520;78;21521;-59
2021/07/02 11:25:52;;;;;;;1.25;1.00;;;;;;;25.66;45.98;95239.45;1832139;78;20976;-59
2021/07/02 11:28:41;;;;;;;1.00;0.80;;;;;;;25.63;45.41;95237.02;1832273;78;21024;-59
2021/07/02 11:31:09;;;;;;;1.05;1.00;;;;;;;25.58;44.09;95241.45;1831405;78;20988;-59
2021/07/02 11:33:37;;;;;;;1.27;0.95;;;;;;;25.37;42.53;95244.08;1832513;78;21031;-59
2021/07/02 11:36:09;;;;;;;1.00;0.90;;;;;;;24.92;42.87;95247.33;1832228;78;21063;-59
2021/07/02 11:38:54;;;;;;;0.70;0.70;;;;;;;25.08;43.61;95235.66;1832598;78;21472;-59
2021/07/02 11:41:28;;;;;;;0.80;0.80;;;;;;;25.38;44.52;95238.20;1800405;78;21004;-59
2021/07/02 11:43:57;;;;;;;1.10;1.00;;;;;;;25.43;43.93;95251.69;1832366;78;21003;-59
2021/07/02 11:46:25;;;;;;;2.87;0.80;;;;;;;25.52;43.82;95232.48;1832194;78;21066;-60
2021/07/02 11:48:54;;;;;;;1.60;0.72;;;;;;;25.44;40.85;95244.44;1832482;78;21018;-59
2021/07/02 11:51:31;;;;;;;1.12;0.82;;;;;;;25.31;43.07;95232.95;1832541;78;21008;-59
2021/07/02 11:54:05;;;;;;;2.12;0.70;;;;;;;25.74;43.17;95231.55;1832398;78;20952;-59
2021/07/02 11:56:37;;;;;;;2.35;0.75;;;;;;;26.21;44.65;95226.66;1832470;78;21008;-59
2021/07/02 11:59:11;;;;;;;0.60;0.60;;;;;;;26.71;42.37;95225.47;1832503;78;20992;-59